Time;durP1;ratioP1;P1;durP2;ratioP2;P2;SDS_P1;SDS_P2;PMS_P1;PMS_P2;Temp;Humidity;BMP_temperature;BMP_pressure;BME280_temperature;BME280_humidity;BME280_pressure;Samples;Min_cycle;Max_cycle;Signal;HPM_P1;HPM_P2
2023/08/15 00:00:13;;;;;;;11.70;8.85;;;18.00;99.90;;;;;;6067795;23;20030;-82
2023/08/15 00:02:42;;;;;;;12.02;9.07;;;18.00;99.90;;;;;;6093572;23;20031;-83
2023/08/15 00:05:10;;;;;;;10.88;8.82;;;18.00;99.90;;;;;;6067738;23;20026;-82
2023/08/15 00:07:56;;;;;;;10.82;8.82;;;18.00;99.90;;;;;;6093635;23;20041;-82
2023/08/15 00:10:25;;;;;;;9.90;8.90;;;18.00;99.90;;;;;;6091354;23;20466;-82
2023/08/15 00:12:53;;;;;;;12.70;8.77;;;17.90;99.90;;;;;;6068495;23;20026;-84
2023/08/15 00:15:22;;;;;;;11.73;8.85;;;17.90;99.90;;;;;;6067423;23;20030;-82
2023/08/15 00:17:50;;;;;;;12.10;8.80;;;17.90;99.90;;;;;;6103879;23;20026;-82
2023/08/15 00:20:18;;;;;;;8.85;7.95;;;17.90;99.90;;;;;;6093545;23;20400;-82
2023/08/15 00:22:45;;;;;;;9.85;7.90;;;17.80;99.90;;;;;;6067491;23;20086;-83
2023/08/15 00:25:13;;;;;;;10.02;8.52;;;17.60;99.90;;;;;;6097845;23;20027;-83
2023/08/15 00:27:40;;;;;;;11.40;9.15;;;17.70;99.90;;;;;;6099684;23;20081;-82
2023/08/15 00:30:09;;;;;;;11.88;8.98;;;17.70;99.90;;;;;;6068303;23;20481;-82
2023/08/15 00:32:38;;;;;;;12.65;8.80;;;17.70;99.90;;;;;;6119124;23;20003;-82
2023/08/15 00:35:06;;;;;;;10.27;8.95;;;17.70;99.90;;;;;;6119377;23;20010;-81
2023/08/15 00:37:34;;;;;;;9.80;8.82;;;17.70;99.90;;;;;;6109093;23;20018;-83
2023/08/15 00:40:02;;;;;;;13.40;8.43;;;17.60;99.90;;;;;;6075184;23;20034;-82
2023/08/15 00:42:30;;;;;;;10.88;8.20;;;17.50;99.90;;;;;;6074139;23;20022;-81
2023/08/15 00:44:59;;;;;;;10.05;8.40;;;17.50;99.90;;;;;;6110000;23;20074;-84
2023/08/15 00:47:26;;;;;;;11.77;8.43;;;17.50;99.90;;;;;;6069903;23;20055;-83
2023/08/15 00:49:56;;;;;;;9.13;8.32;;;17.50;99.90;;;;;;6093647;23;20047;-83
2023/08/15 00:52:23;;;;;;;11.63;8.55;;;17.50;99.90;;;;;;6094152;23;20026;-83
2023/08/15 00:54:53;;;;;;;10.73;8.82;;;17.50;99.90;;;;;;6102064;23;20094;-83
2023/08/15 00:57:21;;;;;;;11.32;8.32;;;17.50;99.90;;;;;;6092742;23;20043;-83
2023/08/15 00:59:49;;;;;;;10.27;8.60;;;17.50;99.90;;;;;;6093261;23;20027;-84
2023/08/15 01:02:16;;;;;;;10.82;8.68;;;17.40;99.90;;;;;;6069031;23;20626;-84
2023/08/15 01:04:44;;;;;;;9.90;8.48;;;17.40;99.90;;;;;;6097252;23;20022;-84
2023/08/15 01:07:13;;;;;;;9.55;8.60;;;17.40;99.90;;;;;;6099636;23;20026;-83
2023/08/15 01:09:43;;;;;;;10.02;9.02;;;17.40;99.90;;;;;;6100890;23;20479;-84
2023/08/15 01:12:19;;;;;;;10.50;8.73;;;17.40;99.90;;;;;;6068773;23;20451;-84
2023/08/15 01:14:53;;;;;;;9.15;8.23;;;17.30;99.90;;;;;;6069330;23;20022;-84
2023/08/15 01:17:29;;;;;;;10.02;8.75;;;17.30;99.90;;;;;;6068111;23;20105;-84
2023/08/15 01:20:03;;;;;;;10.15;8.68;;;17.30;99.90;;;;;;6092434;23;20061;-83
2023/08/15 01:22:35;;;;;;;14.27;8.40;;;17.20;99.90;;;;;;6092437;23;20111;-83
2023/08/15 01:25:05;;;;;;;12.07;8.60;;;17.20;99.90;;;;;;6069298;23;20027;-83
2023/08/15 01:27:33;;;;;;;11.43;8.82;;;17.20;99.90;;;;;;6070521;23;20042;-81
2023/08/15 01:30:00;;;;;;;10.68;8.40;;;17.10;99.90;;;;;;6069373;23;20032;-85
2023/08/15 01:32:33;;;;;;;11.25;8.70;;;17.10;99.90;;;;;;6094568;23;20069;-84
2023/08/15 01:35:13;;;;;;;11.27;8.50;;;17.10;99.90;;;;;;6097427;23;20106;-84
2023/08/15 01:37:46;;;;;;;8.98;8.07;;;17.10;99.90;;;;;;6097938;23;20022;-84
2023/08/15 01:40:17;;;;;;;16.15;8.75;;;17.10;99.90;;;;;;6104488;23;20027;-83
2023/08/15 01:42:46;;;;;;;9.65;8.65;;;17.00;99.90;;;;;;6122954;23;20007;-83
2023/08/15 01:45:15;;;;;;;9.10;8.15;;;17.00;99.90;;;;;;6070014;23;20112;-83
2023/08/15 01:47:43;;;;;;;17.40;15.52;;;17.00;99.90;;;;;;6104710;23;20042;-84
2023/08/15 01:50:10;;;;;;;10.50;9.30;;;16.90;99.90;;;;;;6095324;23;20054;-80
2023/08/15 01:52:38;;;;;;;9.90;8.30;;;17.00;99.90;;;;;;6068641;23;20022;-85
2023/08/15 01:55:06;;;;;;;10.50;9.40;;;17.00;99.90;;;;;;6092330;23;20023;-84
2023/08/15 01:57:35;;;;;;;16.50;14.32;;;17.00;99.90;;;;;;6091994;23;20046;-84
2023/08/15 02:00:03;;;;;;;13.93;10.20;;;16.90;99.90;;;;;;6067508;23;20030;-84
2023/08/15 02:02:43;;;;;;;11.85;9.15;;;16.80;99.90;;;;;;6097915;23;20061;-84
2023/08/15 02:05:10;;;;;;;11.25;8.55;;;16.80;99.90;;;;;;6096040;23;20049;-84
2023/08/15 02:07:38;;;;;;;9.50;8.60;;;16.70;99.90;;;;;;6092037;23;20073;-83
2023/08/15 02:10:06;;;;;;;10.85;8.70;;;16.80;99.90;;;;;;6068457;23;20026;-84
2023/08/15 02:12:35;;;;;;;10.48;8.75;;;16.70;99.90;;;;;;6068331;23;20026;-84
2023/08/15 02:15:04;;;;;;;10.15;8.88;;;16.70;99.90;;;;;;6068400;23;20455;-84
2023/08/15 02:17:31;;;;;;;10.18;9.15;;;16.70;99.90;;;;;;6104508;23;20028;-82
2023/08/15 02:20:01;;;;;;;10.93;8.88;;;16.70;99.90;;;;;;6068260;23;20034;-84
2023/08/15 02:22:30;;;;;;;9.73;8.68;;;16.70;99.90;;;;;;6067878;23;20029;-84
2023/08/15 02:24:57;;;;;;;10.55;8.65;;;16.60;99.90;;;;;;6068378;23;20030;-84
2023/08/15 02:27:27;;;;;;;10.25;8.02;;;16.80;99.90;;;;;;6110223;23;20053;-84
2023/08/15 02:29:56;;;;;;;9.48;8.00;;;16.70;99.90;;;;;;6091514;23;20026;-83
2023/08/15 02:32:25;;;;;;;9.65;8.65;;;16.60;99.90;;;;;;6120179;23;20010;-84
2023/08/15 02:34:53;;;;;;;10.13;9.00;;;16.50;99.90;;;;;;6122917;23;20007;-82
2023/08/15 02:37:20;;;;;;;9.35;8.45;;;16.50;99.90;;;;;;6125369;23;20021;-82
2023/08/15 02:39:47;;;;;;;11.25;8.38;;;16.60;99.90;;;;;;6078495;23;20022;-83
2023/08/15 02:42:15;;;;;;;9.02;8.13;;;16.60;99.90;;;;;;6069301;23;20028;-81
2023/08/15 02:44:43;;;;;;;9.73;8.73;;;16.60;99.90;;;;;;6107425;23;20029;-83
2023/08/15 02:47:12;;;;;;;10.88;8.57;;;16.60;99.90;;;;;;6076097;23;20459;-83
2023/08/15 02:49:40;;;;;;;10.10;8.65;;;16.50;99.90;;;;;;6092565;23;20030;-83
2023/08/15 02:52:07;;;;;;;11.75;8.68;;;16.50;99.90;;;;;;6068432;23;20041;-84
2023/08/15 02:54:35;;;;;;;12.38;9.93;;;16.60;99.90;;;;;;6063609;23;20023;-83
2023/08/15 02:57:02;;;;;;;10.57;9.50;;;16.50;99.90;;;;;;6074361;23;20038;-84
2023/08/15 02:59:29;;;;;;;17.90;9.00;;;16.50;99.90;;;;;;6075480;23;20019;-82
2023/08/15 03:01:57;;;;;;;13.48;9.15;;;16.40;99.90;;;;;;6063722;23;20412;-83
2023/08/15 03:04:26;;;;;;;10.95;9.13;;;16.40;99.90;;;;;;6069368;23;20030;-84
2023/08/15 03:06:53;;;;;;;11.07;9.00;;;16.30;99.90;;;;;;6083531;23;20023;-83
2023/08/15 03:09:20;;;;;;;11.93;8.93;;;16.30;99.90;;;;;;6091379;23;20011;-83
2023/08/15 03:11:48;;;;;;;11.38;9.20;;;16.30;99.90;;;;;;6091758;23;20045;-84
2023/08/15 03:14:15;;;;;;;9.85;8.85;;;16.20;99.90;;;;;;6079940;23;20059;-82
2023/08/15 03:16:43;;;;;;;10.98;9.05;;;16.20;99.90;;;;;;6077778;23;20027;-82
2023/08/15 03:19:10;;;;;;;11.05;8.60;;;16.20;99.90;;;;;;6077766;23;20027;-83
2023/08/15 03:21:40;;;;;;;9.93;8.93;;;16.20;99.90;;;;;;6074381;23;20078;-83
2023/08/15 03:24:08;;;;;;;12.10;9.68;;;16.10;99.90;;;;;;6066436;23;20023;-83
2023/08/15 03:26:36;;;;;;;10.57;9.48;;;16.00;99.90;;;;;;6066263;23;20079;-84
2023/08/15 03:29:03;;;;;;;9.70;8.57;;;16.00;99.90;;;;;;6064836;23;20026;-83
2023/08/15 03:31:31;;;;;;;11.90;9.25;;;15.90;99.90;;;;;;6069694;23;20445;-85
2023/08/15 03:33:58;;;;;;;10.68;9.25;;;16.00;99.90;;;;;;6063193;23;20110;-82
2023/08/15 03:36:26;;;;;;;14.50;8.90;;;16.10;99.90;;;;;;6063020;23;20121;-84
2023/08/15 03:38:55;;;;;;;11.15;9.27;;;16.10;99.90;;;;;;6063857;23;20074;-85
2023/08/15 03:41:22;;;;;;;10.80;9.70;;;16.10;99.90;;;;;;6065260;23;20029;-83
2023/08/15 03:43:50;;;;;;;11.73;9.07;;;16.10;99.90;;;;;;6063560;23;20077;-83
2023/08/15 03:46:18;;;;;;;11.93;9.65;;;16.10;99.90;;;;;;6064193;23;20023;-84
2023/08/15 03:48:47;;;;;;;13.15;9.77;;;16.10;99.90;;;;;;6072197;23;20325;-84
2023/08/15 03:51:14;;;;;;;15.18;10.27;;;16.00;99.90;;;;;;6073984;23;20471;-84
2023/08/15 03:53:43;;;;;;;12.93;10.30;;;16.00;99.90;;;;;;6063800;23;20030;-84
2023/08/15 03:56:12;;;;;;;11.63;9.63;;;16.00;99.90;;;;;;6082530;23;20043;-84
2023/08/15 03:58:39;;;;;;;11.73;9.90;;;16.00;99.90;;;;;;6072571;23;20118;-85
2023/08/15 04:01:07;;;;;;;11.55;8.90;;;16.10;99.90;;;;;;6065822;23;20023;-82
2023/08/15 04:03:35;;;;;;;11.05;9.35;;;16.20;99.90;;;;;;6090851;23;20022;-84
2023/08/15 04:06:03;;;;;;;10.13;8.90;;;16.10;99.90;;;;;;6101213;23;20018;-83
2023/08/15 04:08:30;;;;;;;13.85;9.85;;;16.10;99.90;;;;;;6090928;23;20422;-84
2023/08/15 04:11:00;;;;;;;9.95;8.60;;;16.10;99.90;;;;;;6076909;23;20030;-84
2023/08/15 04:13:29;;;;;;;11.40;9.52;;;16.20;99.90;;;;;;6065976;23;20054;-85
2023/08/15 04:15:56;;;;;;;11.32;9.20;;;16.20;99.90;;;;;;6077497;23;20012;-83
2023/08/15 04:18:24;;;;;;;14.13;9.18;;;16.10;99.90;;;;;;6102284;23;20034;-83
2023/08/15 04:20:51;;;;;;;14.43;9.15;;;16.10;99.90;;;;;;6092303;23;20034;-83
2023/08/15 04:23:18;;;;;;;22.40;10.50;;;16.10;99.90;;;;;;6089595;23;20011;-83
2023/08/15 04:25:46;;;;;;;13.98;9.68;;;16.20;99.90;;;;;;6096328;23;20021;-83
2023/08/15 04:28:13;;;;;;;15.38;10.45;;;16.20;99.90;;;;;;6094484;23;20023;-84
2023/08/15 04:30:49;;;;;;;13.95;10.35;;;16.20;99.90;;;;;;6093664;23;20011;-84
2023/08/15 04:33:16;;;;;;;;;;;16.20;99.90;;;;;;6094970;23;20007;-84
2023/08/15 04:35:44;;;;;;;13.55;10.70;;;16.20;99.90;;;;;;6093222;23;19936;-84
2023/08/15 04:38:12;;;;;;;12.80;10.10;;;16.20;99.90;;;;;;6094273;23;20081;-83
2023/08/15 04:40:40;;;;;;;12.23;10.60;;;16.30;99.90;;;;;;6095564;23;20010;-84
2023/08/15 04:43:08;;;;;;;17.30;11.05;;;16.40;99.90;;;;;;6092171;23;20042;-84
2023/08/15 04:45:40;;;;;;;18.27;11.00;;;16.40;99.90;;;;;;6090018;23;20086;-84
2023/08/15 04:48:12;;;;;;;11.85;10.45;;;16.40;99.90;;;;;;6071405;23;20023;-84
2023/08/15 04:50:40;;;;;;;13.55;10.38;;;16.40;99.90;;;;;;6070009;23;20511;-84
2023/08/15 04:53:08;;;;;;;13.48;10.25;;;16.50;99.90;;;;;;6075299;23;20018;-84
2023/08/15 04:55:36;;;;;;;12.98;10.25;;;16.70;99.90;;;;;;6090583;23;20070;-83
2023/08/15 04:58:04;;;;;;;16.50;12.90;;;16.80;99.90;;;;;;6090333;23;20035;-84
2023/08/15 05:00:31;;;;;;;14.32;10.60;;;16.90;99.90;;;;;;6087049;23;20027;-85
2023/08/15 05:02:59;;;;;;;14.10;10.55;;;17.20;99.90;;;;;;6082752;23;20118;-84
2023/08/15 05:05:34;;;;;;;10.77;8.90;;;17.40;99.90;;;;;;6088767;23;20633;-81
2023/08/15 05:08:01;;;;;;;16.67;10.13;;;17.60;99.90;;;;;;6090399;23;20022;-84
2023/08/15 05:10:29;;;;;;;12.73;8.95;;;17.70;99.90;;;;;;6089546;23;20011;-84
2023/08/15 05:12:59;;;;;;;15.32;10.77;;;17.90;99.90;;;;;;6061544;23;20093;-81
2023/08/15 05:15:27;;;;;;;13.50;9.93;;;18.00;99.90;;;;;;6067470;23;20027;-85
2023/08/15 05:17:58;;;;;;;15.27;9.57;;;18.30;99.90;;;;;;6070835;23;20019;-84
2023/08/15 05:20:36;;;;;;;15.60;10.15;;;18.40;99.90;;;;;;6071016;23;20452;-84
2023/08/15 05:23:05;;;;;;;13.18;9.32;;;18.60;99.90;;;;;;6071340;23;20078;-82
2023/08/15 05:25:38;;;;;;;20.80;9.23;;;18.90;99.90;;;;;;6075717;23;20031;-84
2023/08/15 05:28:08;;;;;;;18.85;9.73;;;19.10;99.90;;;;;;6067717;23;20070;-82
2023/08/15 05:30:36;;;;;;;15.35;8.63;;;19.40;99.90;;;;;;6068477;23;20050;-84
2023/08/15 05:33:08;;;;;;;11.52;8.40;;;19.70;99.90;;;;;;6052738;23;20333;-83
2023/08/15 05:35:40;;;;;;;11.50;8.73;;;19.90;99.90;;;;;;6100405;23;20089;-82
2023/08/15 05:38:07;;;;;;;10.80;7.82;;;20.20;99.90;;;;;;6064944;23;20035;-86
2023/08/15 05:40:51;;;;;;;13.77;9.10;;;20.50;99.90;;;;;;6066494;23;20474;-84
2023/08/15 05:43:29;;;;;;;12.15;8.93;;;20.80;99.90;;;;;;6072004;23;20023;-83
2023/08/15 05:46:10;;;;;;;14.55;8.30;;;21.00;99.90;;;;;;6065117;23;20026;-81
2023/08/15 05:48:46;;;;;;;13.18;9.32;;;21.20;99.90;;;;;;6068932;23;20030;-84
2023/08/15 05:51:15;;;;;;;15.43;11.48;;;21.20;99.90;;;;;;6068064;23;20502;-79
2023/08/15 05:53:43;;;;;;;10.60;8.25;;;21.40;99.90;;;;;;6093285;23;20014;-82
2023/08/15 05:56:13;;;;;;;13.23;9.23;;;21.60;99.90;;;;;;6095231;23;20023;-83
2023/08/15 05:58:44;;;;;;;23.77;8.80;;;21.80;99.90;;;;;;6100573;23;20124;-89
2023/08/15 06:01:29;;;;;;;11.10;8.55;;;21.80;99.90;;;;;;6102651;23;20037;-85
2023/08/15 06:03:56;;;;;;;18.23;9.05;;;22.00;99.90;;;;;;6071716;23;20040;-82
2023/08/15 06:06:25;;;;;;;12.55;10.02;;;22.40;99.90;;;;;;6106337;23;20022;-83
2023/08/15 06:08:53;;;;;;;12.55;8.68;;;22.50;99.90;;;;;;6078348;23;20029;-84
2023/08/15 06:11:21;;;;;;;10.07;7.95;;;22.70;99.90;;;;;;6092031;23;20022;-83
2023/08/15 06:13:49;;;;;;;13.98;7.85;;;22.50;99.90;;;;;;6077509;23;20081;-85
2023/08/15 06:16:33;;;;;;;10.32;8.40;;;22.40;99.90;;;;;;6063944;23;20022;-85
2023/08/15 06:19:14;;;;;;;14.70;9.73;;;22.40;99.90;;;;;;6101418;23;20050;-85
2023/08/15 06:21:44;;;;;;;11.40;7.88;;;22.60;99.90;;;;;;6093151;23;20022;-85
2023/08/15 06:24:13;;;;;;;8.48;7.40;;;22.80;99.90;;;;;;6069642;23;20018;-84
2023/08/15 06:26:41;;;;;;;11.05;8.75;;;23.00;99.90;;;;;;6104990;23;20085;-84
2023/08/15 06:29:09;;;;;;;12.02;8.68;;;23.10;99.90;;;;;;6069687;23;20353;-84
2023/08/15 06:31:37;;;;;;;11.90;8.45;;;23.20;99.90;;;;;;6068999;23;20026;-85
2023/08/15 06:34:10;;;;;;;15.10;10.70;;;23.10;99.90;;;;;;6095026;23;20030;-85
2023/08/15 06:36:41;;;;;;;15.10;9.55;;;23.10;99.90;;;;;;6096706;23;20026;-85
2023/08/15 06:39:13;;;;;;;10.55;7.90;;;23.60;99.90;;;;;;6107443;23;20021;-86
2023/08/15 06:41:41;;;;;;;9.30;8.00;;;24.00;99.90;;;;;;6107786;23;20022;-88
2023/08/15 06:44:09;;;;;;;12.80;7.32;;;24.10;99.90;;;;;;6067951;23;20026;-88
2023/08/15 06:46:36;;;;;;;14.63;7.90;;;24.30;99.90;;;;;;6099167;23;20022;-83
2023/08/15 06:49:04;;;;;;;13.60;7.95;;;24.40;99.90;;;;;;6101302;23;20026;-85
2023/08/15 06:51:31;;;;;;;10.25;7.78;;;24.50;99.90;;;;;;6101416;23;20022;-82
2023/08/15 06:53:58;;;;;;;10.45;7.75;;;24.40;99.90;;;;;;6103688;23;20624;-84
2023/08/15 06:56:28;;;;;;;11.52;7.85;;;24.60;99.90;;;;;;6094056;23;20022;-84
2023/08/15 06:58:55;;;;;;;8.45;7.07;;;24.70;99.90;;;;;;6095825;23;20026;-82
2023/08/15 07:01:23;;;;;;;10.88;7.45;;;24.70;99.90;;;;;;6098300;23;20042;-82
2023/08/15 07:03:52;;;;;;;9.27;8.05;;;24.80;99.90;;;;;;6102792;23;20324;-84
2023/08/15 07:06:19;;;;;;;11.68;7.90;;;25.20;99.90;;;;;;6111672;23;20029;-84
2023/08/15 07:08:47;;;;;;;10.57;8.23;;;25.40;99.90;;;;;;6120332;23;20038;-84
2023/08/15 07:11:14;;;;;;;29.35;22.23;;;25.30;99.90;;;;;;6109658;23;20049;-86
2023/08/15 07:13:43;;;;;;;11.45;8.40;;;25.40;99.90;;;;;;6074966;23;20023;-82
2023/08/15 07:16:10;;;;;;;9.90;8.25;;;25.40;99.90;;;;;;6103517;23;20340;-84
2023/08/15 07:18:37;;;;;;;13.60;8.70;;;25.50;99.90;;;;;;6083069;23;20077;-93
2023/08/15 07:21:05;;;;;;;9.95;8.27;;;25.50;99.90;;;;;;6100007;23;20019;-86
2023/08/15 07:23:34;;;;;;;11.65;8.68;;;25.60;99.90;;;;;;6096948;23;20085;-86
2023/08/15 07:26:02;;;;;;;10.45;7.25;;;25.90;99.90;;;;;;6071610;23;20023;-87
2023/08/15 07:28:30;;;;;;;11.00;7.68;;;25.90;99.90;;;;;;6100462;23;20261;-86
2023/08/15 07:30:59;;;;;;;11.05;8.13;;;25.80;99.90;;;;;;6109202;23;20016;-86
2023/08/15 07:33:35;;;;;;;11.82;9.07;;;25.80;99.90;;;;;;6126875;23;20060;-87
2023/08/15 07:36:04;;;;;;;13.82;8.82;;;25.80;99.90;;;;;;6120374;23;20049;-86
2023/08/15 07:38:32;;;;;;;12.07;7.80;;;25.50;99.90;;;;;;6117783;23;20015;-86
2023/08/15 07:41:00;;;;;;;11.43;8.32;;;25.40;99.90;;;;;;6116383;23;20014;-90
2023/08/15 07:43:38;;;;;;;15.68;10.23;;;25.40;99.90;;;;;;6076028;23;20023;-87
2023/08/15 07:46:09;;;;;;;10.65;9.10;;;25.50;99.90;;;;;;6109386;23;20027;-85
2023/08/15 07:48:36;;;;;;;10.60;8.90;;;25.70;99.90;;;;;;6107196;23;20034;-85
2023/08/15 07:51:04;;;;;;;12.70;9.30;;;25.90;99.90;;;;;;6111474;23;20074;-86
2023/08/15 07:53:31;;;;;;;12.02;8.48;;;26.00;99.90;;;;;;6094937;23;20086;-89
2023/08/15 07:55:59;;;;;;;8.90;7.13;;;26.20;99.90;;;;;;6068389;23;20027;-86
2023/08/15 07:58:26;;;;;;;11.13;7.35;;;26.40;99.90;;;;;;6068117;23;20074;-86
2023/08/15 08:00:57;;;;;;;12.65;9.35;;;26.50;99.90;;;;;;6078463;23;20057;-88
2023/08/15 08:03:28;;;;;;;14.63;10.88;;;26.70;99.90;;;;;;6080434;23;20046;-82
2023/08/15 08:05:55;;;;;;;9.52;7.40;;;27.00;99.90;;;;;;6080066;23;20094;-85
2023/08/15 08:08:23;;;;;;;15.43;11.35;;;27.20;99.90;;;;;;6067574;23;20019;-85
2023/08/15 08:10:50;;;;;;;12.88;8.32;;;27.30;99.90;;;;;;6072442;23;20030;-82
2023/08/15 08:13:18;;;;;;;11.65;8.50;;;27.30;99.90;;;;;;6074374;23;20027;-82
2023/08/15 08:15:47;;;;;;;17.08;8.82;;;27.10;99.90;;;;;;6074875;23;20026;-90
2023/08/15 08:18:15;;;;;;;17.25;10.00;;;27.30;99.90;;;;;;6081339;23;20015;-87
2023/08/15 08:29:15;;;;;;;12.43;8.68;;;28.20;99.90;;;;;;6113778;23;20050;-90
2023/08/15 08:31:43;;;;;;;23.27;9.40;;;28.10;99.90;;;;;;6134375;23;20040;-86
2023/08/15 08:34:13;;;;;;;19.38;10.73;;;28.20;99.90;;;;;;6133064;23;20058;-85
2023/08/15 08:36:41;;;;;;;13.88;9.68;;;28.30;99.90;;;;;;6155893;23;20045;-84
2023/08/15 08:39:08;;;;;;;9.07;8.02;;;28.40;99.90;;;;;;6151423;23;20371;-87
2023/08/15 08:41:37;;;;;;;13.38;8.40;;;28.40;99.90;;;;;;6140666;23;20073;-85
2023/08/15 08:44:07;;;;;;;15.00;9.32;;;28.50;99.90;;;;;;6136227;23;20056;-85
2023/08/15 08:46:38;;;;;;;14.43;8.23;;;28.50;99.90;;;;;;6135269;23;20022;-86
2023/08/15 08:49:14;;;;;;;11.60;9.27;;;28.40;99.90;;;;;;6139401;23;20029;-90
2023/08/15 08:51:42;;;;;;;10.70;8.77;;;28.40;99.90;;;;;;6135684;23;20414;-86
2023/08/15 08:57:11;;;;;;;;;;;28.50;99.90;;;;;;5166778;27;20338;-81
2023/08/15 08:59:43;;;;;;;12.02;9.20;;;28.70;99.90;;;;;;5146711;27;19920;-79
2023/08/15 09:02:14;;;;;;;16.23;11.20;;;28.90;99.90;;;;;;5138984;27;20146;-84
2023/08/15 09:04:42;;;;;;;12.18;9.93;;;28.80;99.90;;;;;;5147389;27;20489;-81
2023/08/15 09:07:09;;;;;;;13.30;8.52;;;28.80;99.90;;;;;;5146866;27;20055;-82
2023/08/15 09:09:38;;;;;;;10.07;7.80;;;28.80;99.90;;;;;;5123132;27;20040;-79
2023/08/15 09:12:06;;;;;;;13.07;9.98;;;28.80;99.90;;;;;;5137926;27;20062;-83
2023/08/15 09:14:40;;;;;;;14.68;10.38;;;28.90;99.90;;;;;;5136749;27;20035;-80
2023/08/15 09:17:11;;;;;;;15.52;9.15;;;29.10;99.90;;;;;;5139745;27;20058;-83
2023/08/15 09:19:41;;;;;;;11.57;7.45;;;29.20;99.90;;;;;;5138313;27;20047;-81
2023/08/15 09:22:08;;;;;;;10.45;7.70;;;29.20;99.90;;;;;;5128724;27;20036;-84
2023/08/15 09:24:36;;;;;;;11.60;8.68;;;29.20;99.90;;;;;;5108865;27;20035;-81
2023/08/15 09:27:06;;;;;;;14.38;10.45;;;29.30;99.90;;;;;;5123736;27;20490;-81
2023/08/15 09:29:37;;;;;;;12.20;11.00;;;29.30;99.90;;;;;;5145938;27;20051;-81
2023/08/15 09:32:05;;;;;;;8.10;7.30;;;29.50;99.90;;;;;;5145433;27;20126;-83
2023/08/15 09:34:32;;;;;;;9.40;5.90;;;29.70;99.90;;;;;;5120817;27;20043;-84
2023/08/15 09:37:00;;;;;;;10.32;8.23;;;29.70;99.90;;;;;;5126014;27;20383;-80
2023/08/15 09:39:28;;;;;;;12.35;7.00;;;29.80;99.90;;;;;;5121977;27;20043;-81
2023/08/15 09:41:57;;;;;;;8.63;5.63;;;29.80;99.90;;;;;;5144713;27;20039;-81
2023/08/15 09:44:32;;;;;;;12.13;7.40;;;29.60;99.90;;;;;;5138087;27;20126;-81
2023/08/15 09:47:02;;;;;;;10.15;7.15;;;29.50;99.90;;;;;;5126042;27;20514;-85
2023/08/15 09:49:30;;;;;;;12.45;9.13;;;29.70;99.90;;;;;;5108849;27;20035;-81
2023/08/15 09:51:59;;;;;;;8.95;6.57;;;30.00;99.90;;;;;;5143579;27;20487;-81
2023/08/15 09:54:32;;;;;;;9.38;8.10;;;30.20;99.90;;;;;;5144225;27;20042;-86
2023/08/15 09:57:00;;;;;;;10.25;5.80;;;29.90;99.90;;;;;;5153732;27;20059;-82
2023/08/15 09:59:28;;;;;;;10.50;7.20;;;30.00;99.90;;;;;;5139257;27;20043;-81
2023/08/15 10:01:57;;;;;;;7.43;5.82;;;30.20;99.90;;;;;;5130432;27;20156;-79
2023/08/15 10:04:32;;;;;;;8.80;5.93;;;30.40;99.90;;;;;;5141338;27;20172;-80
2023/08/15 10:07:00;;;;;;;9.67;4.50;;;30.30;99.90;;;;;;5151570;27;20053;-81
2023/08/15 10:09:32;;;;;;;9.52;6.93;;;30.20;99.90;;;;;;5144480;27;20717;-80
2023/08/15 10:12:01;;;;;;;11.10;5.95;;;30.10;99.90;;;;;;5122847;27;20031;-83
2023/08/15 10:14:30;;;;;;;8.57;4.35;;;30.10;99.90;;;;;;5137182;27;20073;-81
2023/08/15 10:16:58;;;;;;;9.35;5.28;;;30.10;99.90;;;;;;5144931;27;20043;-83
2023/08/15 10:19:30;;;;;;;8.60;4.47;;;30.10;99.90;;;;;;5140071;27;20116;-83
2023/08/15 10:21:57;;;;;;;7.05;4.90;;;30.10;99.90;;;;;;5137759;27;20047;-82
2023/08/15 10:24:25;;;;;;;6.75;4.93;;;30.20;99.90;;;;;;5132683;27;20040;-83
2023/08/15 10:27:02;;;;;;;9.15;6.35;;;30.10;99.90;;;;;;5133988;27;20043;-84
2023/08/15 10:29:30;;;;;;;9.95;6.55;;;30.10;99.90;;;;;;5138029;27;20062;-85
2023/08/15 10:32:00;;;;;;;9.68;4.82;;;30.10;99.90;;;;;;5120141;27;20044;-81
2023/08/15 10:34:38;;;;;;;10.35;4.45;;;30.10;99.90;;;;;;5141863;27;20127;-85
2023/08/15 10:37:28;;;;;;;7.88;4.53;;;29.80;99.90;;;;;;5146461;27;20043;-81
2023/08/15 10:40:08;;;;;;;8.93;4.55;;;29.50;99.90;;;;;;5146700;27;20033;-81
2023/08/15 10:43:07;;;;;;;8.02;4.35;;;29.10;99.90;;;;;;5141698;27;20079;-83
2023/08/15 10:45:40;;;;;;;8.85;3.88;;;29.00;99.90;;;;;;5128020;27;20043;-80
2023/08/15 10:48:08;;;;;;;9.48;5.47;;;29.00;99.90;;;;;;5129459;27;20032;-80
2023/08/15 10:50:48;;;;;;;6.32;5.20;;;29.40;99.90;;;;;;5104109;27;20410;-82
2023/08/15 10:53:16;;;;;;;6.95;5.22;;;29.80;99.90;;;;;;5130950;27;20053;-83
2023/08/15 10:55:46;;;;;;;7.65;4.45;;;30.00;99.90;;;;;;5128601;27;20047;-85
2023/08/15 10:58:14;;;;;;;7.95;4.53;;;30.00;99.90;;;;;;5115392;27;20074;-81
2023/08/15 11:00:43;;;;;;;10.88;5.63;;;30.00;99.90;;;;;;5111380;27;20039;-83
2023/08/15 11:03:13;;;;;;;6.68;4.20;;;29.80;99.90;;;;;;5144960;27;20061;-84
2023/08/15 11:05:41;;;;;;;7.80;4.55;;;29.90;99.90;;;;;;5147701;27;20030;-80
2023/08/15 11:08:18;;;;;;;7.82;4.45;;;29.60;99.90;;;;;;5140797;27;20047;-81
2023/08/15 11:10:50;;;;;;;9.35;5.43;;;29.60;99.90;;;;;;5143050;27;20039;-82
2023/08/15 11:13:20;;;;;;;9.88;5.32;;;29.60;99.90;;;;;;5140853;27;20050;-81
2023/08/15 11:15:50;;;;;;;7.60;4.55;;;29.70;99.90;;;;;;5135891;27;20092;-82
2023/08/15 11:18:22;;;;;;;9.00;5.72;;;29.60;99.90;;;;;;5119385;28;20055;-81
2023/08/15 11:20:50;;;;;;;6.88;4.43;;;29.50;99.90;;;;;;5106443;27;20052;-80
2023/08/15 11:23:22;;;;;;;9.45;5.93;;;29.50;99.90;;;;;;5144090;27;20046;-79
2023/08/15 11:25:52;;;;;;;7.88;5.05;;;29.70;99.90;;;;;;5146638;27;20027;-82
2023/08/15 11:28:20;;;;;;;10.27;4.97;;;29.80;99.90;;;;;;5123789;28;20051;-80
2023/08/15 11:30:48;;;;;;;6.88;4.97;;;29.90;99.90;;;;;;5143839;27;20028;-84
2023/08/15 11:33:16;;;;;;;8.52;4.63;;;29.90;99.90;;;;;;5146293;27;20036;-80
2023/08/15 11:35:47;;;;;;;7.85;5.03;;;30.00;99.90;;;;;;5107832;27;20069;-79
2023/08/15 11:38:19;;;;;;;7.50;4.28;;;30.00;99.90;;;;;;5123312;27;20039;-80
2023/08/15 11:40:48;;;;;;;5.97;4.47;;;30.00;99.90;;;;;;5133839;27;20073;-80
2023/08/15 11:43:17;;;;;;;6.82;4.85;;;30.00;99.90;;;;;;5124786;27;20036;-80
2023/08/15 11:45:44;;;;;;;6.80;5.20;;;30.10;99.90;;;;;;5129987;27;20047;-82
2023/08/15 11:48:14;;;;;;;8.07;5.97;;;30.00;99.90;;;;;;5121114;27;20031;-80
2023/08/15 11:50:47;;;;;;;13.07;5.85;;;30.20;99.90;;;;;;5111718;27;20035;-81
2023/08/15 11:53:38;;;;;;;5.30;4.22;;;30.40;99.90;;;;;;5142077;27;20490;-79
2023/08/15 11:56:05;;;;;;;8.65;4.57;;;30.10;99.90;;;;;;5131467;27;20043;-81
2023/08/15 11:58:35;;;;;;;9.80;4.05;;;30.30;99.90;;;;;;5122884;27;20039;-81
2023/08/15 12:01:05;;;;;;;5.80;3.17;;;30.20;99.90;;;;;;5108699;27;20069;-80
2023/08/15 12:03:34;;;;;;;5.45;3.80;;;30.10;99.90;;;;;;5128817;27;20535;-85
2023/08/15 12:06:12;;;;;;;8.32;4.25;;;30.00;99.90;;;;;;5129656;27;20052;-81
2023/08/15 12:08:45;;;;;;;5.75;3.78;;;29.90;99.90;;;;;;5132173;27;20035;-84
2023/08/15 12:11:12;;;;;;;8.13;3.80;;;29.80;99.90;;;;;;5120993;27;20043;-85
2023/08/15 12:13:42;;;;;;;10.93;4.05;;;29.70;99.90;;;;;;5132041;27;20039;-86
2023/08/15 12:16:11;;;;;;;5.57;3.85;;;29.90;99.90;;;;;;5106979;27;20059;-79
2023/08/15 12:18:39;;;;;;;10.95;4.35;;;29.60;99.90;;;;;;5105773;28;20043;-84
2023/08/15 12:21:07;;;;;;;6.80;3.70;;;29.60;99.90;;;;;;5106106;28;20026;-81
2023/08/15 12:23:34;;;;;;;7.15;3.60;;;29.50;99.90;;;;;;5112863;27;20050;-83
2023/08/15 12:26:06;;;;;;;5.18;4.07;;;29.40;99.90;;;;;;5131826;27;20058;-83
2023/08/15 12:28:33;;;;;;;7.22;4.53;;;29.40;99.90;;;;;;5122924;27;20035;-83
2023/08/15 12:31:11;;;;;;;6.50;4.22;;;29.40;99.90;;;;;;5126411;27;20069;-86
2023/08/15 12:33:39;;;;;;;5.00;3.83;;;29.20;99.90;;;;;;5114118;27;20108;-83
2023/08/15 12:36:07;;;;;;;8.65;4.13;;;29.10;99.90;;;;;;5129905;27;20063;-83
2023/08/15 12:38:48;;;;;;;7.30;5.07;;;29.20;99.90;;;;;;5119201;27;20015;-81
2023/08/15 12:41:44;;;;;;;4.97;3.55;;;29.50;99.90;;;;;;5140578;27;20043;-87
2023/08/15 12:44:12;;;;;;;8.95;4.90;;;29.60;99.90;;;;;;5091071;28;20043;-86
2023/08/15 12:46:55;;;;;;;5.55;4.30;;;29.70;99.90;;;;;;5127404;28;20046;-87
2023/08/15 12:49:23;;;;;;;7.07;4.38;;;29.80;99.90;;;;;;5129349;27;20043;-85
2023/08/15 12:51:50;;;;;;;8.43;4.65;;;30.00;99.90;;;;;;5122664;28;20046;-87
2023/08/15 12:54:19;;;;;;;9.02;4.32;;;30.30;99.90;;;;;;5142061;28;20028;-87
2023/08/15 12:56:49;;;;;;;8.65;4.30;;;30.50;99.90;;;;;;5117745;28;20074;-86
2023/08/15 12:59:18;;;;;;;8.55;3.90;;;30.40;99.90;;;;;;5134887;28;20505;-83
2023/08/15 13:01:54;;;;;;;9.07;4.10;;;30.30;99.90;;;;;;5132104;28;20103;-85
2023/08/15 13:04:22;;;;;;;5.57;4.13;;;30.30;99.90;;;;;;5139554;28;20043;-84